createdAt,value
2022-11-26T00:00:51.278Z,1016.14
2022-11-26T00:01:51.322Z,1016.16
2022-11-26T00:02:51.461Z,1016.19
2022-11-26T00:03:51.255Z,1016.13
2022-11-26T00:04:51.239Z,1016.17
2022-11-26T00:05:51.249Z,1016.13
2022-11-26T00:06:51.213Z,1016.10
2022-11-26T00:07:51.358Z,1016.13
2022-11-26T00:08:51.193Z,1016.11
2022-11-26T00:09:51.189Z,1016.12
2022-11-26T00:10:51.181Z,1016.17
2022-11-26T00:11:51.172Z,1016.13
2022-11-26T00:12:51.158Z,1016.15
2022-11-26T00:13:51.184Z,1016.17
2022-11-26T00:14:51.131Z,1016.18
2022-11-26T00:15:51.125Z,1016.20
2022-11-26T00:16:51.140Z,1016.19
2022-11-26T00:17:51.093Z,1016.21
2022-11-26T00:18:51.132Z,1016.18
2022-11-26T00:19:51.078Z,1016.21
2022-11-26T00:20:51.101Z,1016.24
2022-11-26T00:21:51.084Z,1016.23
2022-11-26T00:22:51.049Z,1016.22
2022-11-26T00:23:51.031Z,1016.26
2022-11-26T00:24:51.019Z,1016.26
2022-11-26T00:25:51.012Z,1016.26
2022-11-26T00:26:51.038Z,1016.28
2022-11-26T00:27:50.997Z,1016.27
2022-11-26T00:28:50.974Z,1016.25
2022-11-26T00:29:50.963Z,1016.29
2022-11-26T00:30:50.956Z,1016.27
2022-11-26T00:31:51.173Z,1016.26
2022-11-26T00:32:50.943Z,1016.29
2022-11-26T00:33:50.931Z,1016.31
2022-11-26T00:34:50.921Z,1016.32
2022-11-26T00:35:50.911Z,1016.31
2022-11-26T00:36:50.888Z,1016.29
2022-11-26T00:37:50.930Z,1016.26
2022-11-26T00:38:50.870Z,1016.29
2022-11-26T00:39:50.863Z,1016.33
2022-11-26T00:40:50.856Z,1016.36
2022-11-26T00:41:50.845Z,1016.35
2022-11-26T00:42:50.865Z,1016.37
2022-11-26T00:43:50.825Z,1016.40
2022-11-26T00:44:50.808Z,1016.40
2022-11-26T00:45:50.867Z,1016.41
2022-11-26T00:46:50.795Z,1016.43
2022-11-26T00:47:50.772Z,1016.44
2022-11-26T00:48:50.785Z,1016.42
2022-11-26T00:49:50.760Z,1016.42
2022-11-26T00:50:50.741Z,1016.41
2022-11-26T00:51:50.733Z,1016.47
2022-11-26T00:52:50.745Z,1016.46
2022-11-26T00:53:50.743Z,1016.44
2022-11-26T00:54:50.727Z,1016.44
2022-11-26T00:55:50.694Z,1016.50
2022-11-26T00:56:50.687Z,1016.47
2022-11-26T00:57:50.665Z,1016.44
2022-11-26T00:58:50.655Z,1016.46
2022-11-26T00:59:50.648Z,1016.51
2022-11-26T01:00:50.683Z,1016.50
2022-11-26T01:01:50.712Z,1016.51
2022-11-26T01:02:50.617Z,1016.51
2022-11-26T01:03:50.607Z,1016.56
2022-11-26T01:04:50.618Z,1016.57
2022-11-26T01:05:50.583Z,1016.55
2022-11-26T01:06:50.580Z,1016.61
2022-11-26T01:07:50.633Z,1016.63
2022-11-26T01:08:50.553Z,1016.64
2022-11-26T01:09:50.587Z,1016.65
2022-11-26T01:10:50.525Z,1016.69
2022-11-26T01:11:54.011Z,1016.68
2022-11-26T01:12:50.508Z,1016.69
2022-11-26T01:13:50.522Z,1016.68
2022-11-26T01:14:59.667Z,1016.71
2022-11-26T01:15:50.569Z,1016.72
2022-11-26T01:16:50.625Z,1016.73
2022-11-26T01:17:51.186Z,1016.76
2022-11-26T01:18:50.442Z,1016.77
2022-11-26T01:19:50.482Z,1016.78
2022-11-26T01:20:50.469Z,1016.75
2022-11-26T01:21:50.436Z,1016.81
2022-11-26T01:22:50.466Z,1016.81
2022-11-26T01:23:50.391Z,1016.82
2022-11-26T01:24:50.426Z,1016.82
2022-11-26T01:25:50.404Z,1016.84
2022-11-26T01:26:50.459Z,1016.85
2022-11-26T01:27:50.341Z,1016.85
2022-11-26T01:28:50.341Z,1016.87
2022-11-26T01:29:50.348Z,1016.87
2022-11-26T01:30:50.315Z,1016.86
2022-11-26T01:31:50.455Z,1016.88
2022-11-26T01:32:50.318Z,1016.91
2022-11-26T01:33:50.281Z,1016.95
2022-11-26T01:34:50.277Z,1016.95
2022-11-26T01:35:50.270Z,1016.99
2022-11-26T01:36:50.318Z,1016.98
2022-11-26T01:37:50.251Z,1016.98
2022-11-26T01:38:50.247Z,1016.99
2022-11-26T01:39:50.246Z,1017.00
2022-11-26T01:40:50.213Z,1016.98
2022-11-26T01:41:50.234Z,1016.95
2022-11-26T01:42:50.305Z,1016.99
2022-11-26T01:43:50.201Z,1016.98
2022-11-26T01:44:50.167Z,1017.02
2022-11-26T01:45:50.341Z,1017.05
2022-11-26T01:46:50.176Z,1017.04
2022-11-26T01:47:50.180Z,1017.04
2022-11-26T01:48:50.167Z,1017.03
2022-11-26T01:49:50.141Z,1016.99
2022-11-26T01:50:50.148Z,1016.98
2022-11-26T01:51:50.114Z,1017.01
2022-11-26T01:52:50.163Z,1017.07
2022-11-26T01:53:50.067Z,1017.08
2022-11-26T01:54:50.111Z,1017.06
2022-11-26T01:55:50.062Z,1017.06
2022-11-26T01:56:50.036Z,1017.06
2022-11-26T01:57:50.105Z,1017.06
2022-11-26T01:58:50.065Z,1017.07
2022-11-26T01:59:50.042Z,1017.10
2022-11-26T02:00:50.107Z,1017.07
2022-11-26T02:01:50.044Z,1017.05
2022-11-26T02:02:50.026Z,1017.08
2022-11-26T02:03:49.977Z,1017.06
2022-11-26T02:04:49.971Z,1017.05
2022-11-26T02:05:49.965Z,1017.08
2022-11-26T02:06:49.926Z,1017.07
2022-11-26T02:07:49.958Z,1017.14
2022-11-26T02:08:49.929Z,1017.14
2022-11-26T02:09:49.894Z,1017.12
2022-11-26T02:10:49.887Z,1017.18
2022-11-26T02:11:49.898Z,1017.15
2022-11-26T02:12:49.864Z,1017.14
2022-11-26T02:13:49.871Z,1017.14
2022-11-26T02:14:49.842Z,1017.15
2022-11-26T02:15:49.839Z,1017.19
2022-11-26T02:16:49.931Z,1017.17
2022-11-26T02:17:49.812Z,1017.23
2022-11-26T02:18:49.803Z,1017.25
2022-11-26T02:19:49.782Z,1017.27
2022-11-26T02:20:49.781Z,1017.32
2022-11-26T02:21:49.790Z,1017.33
2022-11-26T02:22:49.800Z,1017.32
2022-11-26T02:23:49.773Z,1017.35
2022-11-26T02:24:49.744Z,1017.35
2022-11-26T02:25:49.771Z,1017.32
2022-11-26T02:26:49.716Z,1017.33
2022-11-26T02:27:49.706Z,1017.38
2022-11-26T02:28:49.695Z,1017.37
2022-11-26T02:29:49.693Z,1017.40
2022-11-26T02:30:49.677Z,1017.39
2022-11-26T02:31:49.798Z,1017.42
2022-11-26T02:32:49.644Z,1017.44
2022-11-26T02:33:49.667Z,1017.49
2022-11-26T02:34:49.631Z,1017.51
2022-11-26T02:35:49.607Z,1017.48
2022-11-26T02:36:49.644Z,1017.55
2022-11-26T02:37:49.591Z,1017.53
2022-11-26T02:38:49.580Z,1017.53
2022-11-26T02:39:49.572Z,1017.53
2022-11-26T02:40:49.565Z,1017.57
2022-11-26T02:41:49.570Z,1017.56
2022-11-26T02:42:49.578Z,1017.55
2022-11-26T02:43:49.579Z,1017.52
2022-11-26T02:44:49.557Z,1017.55
2022-11-26T02:45:49.612Z,1017.49
2022-11-26T02:46:49.503Z,1017.51
2022-11-26T02:47:49.480Z,1017.51
2022-11-26T02:48:49.474Z,1017.48
2022-11-26T02:49:49.492Z,1017.51
2022-11-26T02:50:49.442Z,1017.51
2022-11-26T02:51:49.430Z,1017.50
2022-11-26T02:52:49.434Z,1017.50
2022-11-26T02:53:49.414Z,1017.54
2022-11-26T02:54:49.438Z,1017.54
2022-11-26T02:55:49.397Z,1017.57
2022-11-26T02:56:49.407Z,1017.53
2022-11-26T02:57:49.368Z,1017.52
2022-11-26T02:58:49.357Z,1017.49
2022-11-26T02:59:49.344Z,1017.56
2022-11-26T03:00:49.456Z,1017.60
2022-11-26T03:01:49.354Z,1017.54
2022-11-26T03:02:49.315Z,1017.55
2022-11-26T03:03:49.360Z,1017.55
2022-11-26T03:04:49.335Z,1017.55
2022-11-26T03:05:49.292Z,1017.54
2022-11-26T03:06:49.270Z,1017.55
2022-11-26T03:07:49.419Z,1017.57
2022-11-26T03:08:49.255Z,1017.53
2022-11-26T03:09:49.245Z,1017.56
2022-11-26T03:10:49.258Z,1017.57
2022-11-26T03:11:49.302Z,1017.55
2022-11-26T03:12:49.220Z,1017.52
2022-11-26T03:13:49.204Z,1017.52
2022-11-26T03:14:49.183Z,1017.54
2022-11-26T03:15:49.178Z,1017.57
2022-11-26T03:16:49.239Z,1017.57
2022-11-26T03:17:49.204Z,1017.59
2022-11-26T03:18:49.151Z,1017.58
2022-11-26T03:19:49.142Z,1017.59
2022-11-26T03:20:52.214Z,1017.64
2022-11-26T03:21:49.111Z,1017.65
2022-11-26T03:22:49.132Z,1017.62
2022-11-26T03:23:49.102Z,1017.66
2022-11-26T03:24:49.080Z,1017.66
2022-11-26T03:25:49.065Z,1017.67
2022-11-26T03:26:49.096Z,1017.70
2022-11-26T03:27:49.070Z,1017.70
2022-11-26T03:28:49.034Z,1017.78
2022-11-26T03:29:49.025Z,1017.75
2022-11-26T03:30:49.021Z,1017.78
2022-11-26T03:31:49.131Z,1017.80
2022-11-26T03:32:48.993Z,1017.81
2022-11-26T03:33:49.006Z,1017.84
2022-11-26T03:34:48.976Z,1017.84
2022-11-26T03:35:48.968Z,1017.83
2022-11-26T03:36:48.955Z,1017.84
2022-11-26T03:37:48.975Z,1017.81
2022-11-26T03:38:48.934Z,1017.86
2022-11-26T03:39:48.915Z,1017.90
2022-11-26T03:40:48.904Z,1017.90
2022-11-26T03:41:48.904Z,1017.87
2022-11-26T03:42:48.891Z,1017.89
2022-11-26T03:43:48.898Z,1017.94
2022-11-26T03:44:48.868Z,1017.90
2022-11-26T03:45:48.921Z,1017.90
2022-11-26T03:46:48.845Z,1017.90
2022-11-26T03:47:48.849Z,1017.93
2022-11-26T03:48:48.825Z,1017.92
2022-11-26T03:49:48.855Z,1017.95
2022-11-26T03:50:48.826Z,1017.91
2022-11-26T03:51:48.792Z,1017.96
2022-11-26T03:52:48.785Z,1017.90
2022-11-26T03:53:48.808Z,1017.92
2022-11-26T03:54:48.785Z,1017.93
2022-11-26T03:55:48.768Z,1017.98
2022-11-26T03:56:48.794Z,1017.97
2022-11-26T03:57:48.758Z,1018.01
2022-11-26T03:58:48.722Z,1018.03
2022-11-26T03:59:49.250Z,1018.02
2022-11-26T04:00:48.755Z,1018.02
2022-11-26T04:01:48.791Z,1018.00
2022-11-26T04:02:48.759Z,1018.03
2022-11-26T04:03:48.678Z,1018.03
2022-11-26T04:04:48.664Z,1018.05
2022-11-26T04:05:48.748Z,1018.03
2022-11-26T04:06:49.151Z,1018.08
2022-11-26T04:07:48.801Z,1018.13
2022-11-26T04:08:48.680Z,1018.15
2022-11-26T04:09:48.602Z,1018.21
2022-11-26T04:10:48.590Z,1018.16
2022-11-26T04:11:48.623Z,1018.22
2022-11-26T04:12:48.610Z,1018.22
2022-11-26T04:13:48.604Z,1018.21
2022-11-26T04:14:48.548Z,1018.21
2022-11-26T04:15:48.537Z,1018.26
2022-11-26T04:16:48.591Z,1018.25
2022-11-26T04:17:48.540Z,1018.28
2022-11-26T04:18:48.519Z,1018.28
2022-11-26T04:19:48.488Z,1018.24
2022-11-26T04:20:52.792Z,1018.28
2022-11-26T04:21:48.486Z,1018.25
2022-11-26T04:22:48.488Z,1018.25
2022-11-26T04:23:48.443Z,1018.33
2022-11-26T04:24:48.467Z,1018.30
2022-11-26T04:25:48.422Z,1018.32
2022-11-26T04:26:48.414Z,1018.42
2022-11-26T04:27:48.407Z,1018.38
2022-11-26T04:28:48.403Z,1018.47
2022-11-26T04:29:48.418Z,1018.48
2022-11-26T04:30:48.376Z,1018.49
2022-11-26T04:31:48.468Z,1018.53
2022-11-26T04:32:48.351Z,1018.53
2022-11-26T04:33:48.342Z,1018.55
2022-11-26T04:34:48.356Z,1018.56
2022-11-26T04:35:48.397Z,1018.56
2022-11-26T04:36:48.308Z,1018.56
2022-11-26T04:37:49.156Z,1018.55
2022-11-26T04:38:48.320Z,1018.58
2022-11-26T04:39:48.379Z,1018.60
2022-11-26T04:40:48.303Z,1018.56
2022-11-26T04:41:48.287Z,1018.63
2022-11-26T04:42:48.242Z,1018.59
2022-11-26T04:43:49.275Z,1018.63
2022-11-26T04:44:48.256Z,1018.62
2022-11-26T04:45:48.311Z,1018.64
2022-11-26T04:46:48.232Z,1018.69
2022-11-26T04:47:48.196Z,1018.72
2022-11-26T04:48:48.236Z,1018.76
2022-11-26T04:49:48.195Z,1018.73
2022-11-26T04:50:48.151Z,1018.76
2022-11-26T04:51:48.148Z,1018.74
2022-11-26T04:52:48.133Z,1018.78
2022-11-26T04:53:48.136Z,1018.76
2022-11-26T04:54:48.165Z,1018.76
2022-11-26T04:55:48.097Z,1018.75
2022-11-26T04:56:48.088Z,1018.77
2022-11-26T04:57:48.080Z,1018.78
2022-11-26T04:58:48.072Z,1018.79
2022-11-26T04:59:48.062Z,1018.79
2022-11-26T05:00:50.848Z,1018.81
2022-11-26T05:01:48.094Z,1018.83
2022-11-26T05:02:48.147Z,1018.84
2022-11-26T05:03:48.018Z,1018.87
2022-11-26T05:04:48.001Z,1018.85
2022-11-26T05:05:48.012Z,1018.93
2022-11-26T05:06:47.984Z,1018.93
2022-11-26T05:07:47.991Z,1018.92
2022-11-26T05:08:47.964Z,1018.96
2022-11-26T05:09:47.960Z,1018.95
2022-11-26T05:10:47.936Z,1019.00
2022-11-26T05:11:47.953Z,1019.02
2022-11-26T05:12:47.913Z,1019.01
2022-11-26T05:13:47.905Z,1019.00
2022-11-26T05:14:47.893Z,1019.03
2022-11-26T05:15:47.880Z,1019.05
2022-11-26T05:16:47.946Z,1019.06
2022-11-26T05:17:47.881Z,1019.09
2022-11-26T05:18:47.858Z,1019.15
2022-11-26T05:19:47.839Z,1019.08
2022-11-26T05:20:47.879Z,1019.05
2022-11-26T05:21:47.819Z,1019.08
2022-11-26T05:22:47.811Z,1019.12
2022-11-26T05:23:47.854Z,1019.14
2022-11-26T05:24:47.788Z,1019.20
2022-11-26T05:25:47.831Z,1019.16
2022-11-26T05:26:51.152Z,1019.17
2022-11-26T05:27:48.750Z,1019.19
2022-11-26T05:28:47.789Z,1019.19
2022-11-26T05:29:47.751Z,1019.21
2022-11-26T05:30:47.754Z,1019.23
2022-11-26T05:31:47.781Z,1019.23
2022-11-26T05:32:47.734Z,1019.29
2022-11-26T05:33:47.763Z,1019.30
2022-11-26T05:34:47.719Z,1019.31
2022-11-26T05:35:47.692Z,1019.33
2022-11-26T05:36:47.694Z,1019.34
2022-11-26T05:37:47.675Z,1019.33
2022-11-26T05:38:47.719Z,1019.37
2022-11-26T05:39:47.625Z,1019.37
2022-11-26T05:40:48.211Z,1019.33
2022-11-26T05:41:47.624Z,1019.34
2022-11-26T05:42:47.630Z,1019.35
2022-11-26T05:43:47.596Z,1019.40
2022-11-26T05:44:47.596Z,1019.42
2022-11-26T05:45:47.681Z,1019.41
2022-11-26T05:46:47.609Z,1019.42
2022-11-26T05:47:47.636Z,1019.39
2022-11-26T05:48:47.551Z,1019.46
2022-11-26T05:49:47.523Z,1019.43
2022-11-26T05:50:51.558Z,1019.45
2022-11-26T05:51:48.505Z,1019.42
2022-11-26T05:52:47.521Z,1019.45
2022-11-26T05:53:47.476Z,1019.51
2022-11-26T05:54:47.460Z,1019.50
2022-11-26T05:55:47.466Z,1019.47
2022-11-26T05:56:47.442Z,1019.52
2022-11-26T05:57:47.467Z,1019.47
2022-11-26T05:58:47.417Z,1019.55
2022-11-26T05:59:47.404Z,1019.49
2022-11-26T06:00:47.433Z,1019.54
2022-11-26T06:01:47.445Z,1019.50
2022-11-26T06:02:47.581Z,1019.60
2022-11-26T06:03:47.478Z,1019.58
2022-11-26T06:04:47.445Z,1019.56
2022-11-26T06:05:47.351Z,1019.65
2022-11-26T06:06:47.416Z,1019.60
2022-11-26T06:07:47.431Z,1019.65
2022-11-26T06:08:47.350Z,1019.63
2022-11-26T06:09:47.364Z,1019.62
2022-11-26T06:10:47.296Z,1019.65
2022-11-26T06:11:47.282Z,1019.65
2022-11-26T06:12:47.266Z,1019.64
2022-11-26T06:13:47.313Z,1019.76
2022-11-26T06:14:47.430Z,1019.72
2022-11-26T06:15:47.268Z,1019.77
2022-11-26T06:16:47.373Z,1019.79
2022-11-26T06:17:47.236Z,1019.76
2022-11-26T06:18:47.224Z,1019.81
2022-11-26T06:19:47.269Z,1019.83
2022-11-26T06:20:47.252Z,1019.85
2022-11-26T06:21:47.236Z,1019.80
2022-11-26T06:22:47.220Z,1019.84
2022-11-26T06:23:54.353Z,1019.84
2022-11-26T06:24:48.205Z,1019.85
2022-11-26T06:25:47.136Z,1019.89
2022-11-26T06:26:47.154Z,1019.91
2022-11-26T06:27:47.152Z,1019.90
2022-11-26T06:28:47.095Z,1019.93
2022-11-26T06:29:47.112Z,1019.94
2022-11-26T06:30:47.090Z,1019.96
2022-11-26T06:31:47.216Z,1019.99
2022-11-26T06:32:47.062Z,1020.03
2022-11-26T06:33:47.064Z,1020.02
2022-11-26T06:34:52.578Z,1020.04
2022-11-26T06:35:48.050Z,1020.07
2022-11-26T06:36:47.007Z,1020.05
2022-11-26T06:37:47.053Z,1020.11
2022-11-26T06:38:47.723Z,1020.12
2022-11-26T06:39:46.981Z,1020.11
2022-11-26T06:40:46.967Z,1020.11
2022-11-26T06:41:46.982Z,1020.16
2022-11-26T06:42:46.977Z,1020.15
2022-11-26T06:43:46.965Z,1020.16
2022-11-26T06:44:46.924Z,1020.15
2022-11-26T06:45:47.041Z,1020.21
2022-11-26T06:46:46.907Z,1020.21
2022-11-26T06:47:46.919Z,1020.20
2022-11-26T06:48:46.884Z,1020.23
2022-11-26T06:49:47.314Z,1020.22
2022-11-26T06:50:46.862Z,1020.26
2022-11-26T06:51:46.848Z,1020.22
2022-11-26T06:52:46.869Z,1020.24
2022-11-26T06:53:46.832Z,1020.26
2022-11-26T06:54:46.822Z,1020.28
2022-11-26T06:55:46.807Z,1020.32
2022-11-26T06:56:46.795Z,1020.33
2022-11-26T06:57:46.814Z,1020.37
2022-11-26T06:58:46.844Z,1020.40
2022-11-26T06:59:46.772Z,1020.40
2022-11-26T07:00:46.748Z,1020.41
2022-11-26T07:01:46.850Z,1020.44
2022-11-26T07:02:46.758Z,1020.44
2022-11-26T07:03:46.748Z,1020.50
2022-11-26T07:04:46.704Z,1020.49
2022-11-26T07:05:46.693Z,1020.51
2022-11-26T07:06:46.686Z,1020.53
2022-11-26T07:07:46.759Z,1020.54
2022-11-26T07:08:46.738Z,1020.54
2022-11-26T07:09:46.680Z,1020.55
2022-11-26T07:10:49.144Z,1020.58
2022-11-26T07:11:46.630Z,1020.58
2022-11-26T07:12:46.628Z,1020.59
2022-11-26T07:13:46.631Z,1020.61
2022-11-26T07:14:46.609Z,1020.61
2022-11-26T07:15:46.741Z,1020.62
2022-11-26T07:16:46.750Z,1020.64
2022-11-26T07:17:46.966Z,1020.65
2022-11-26T07:18:49.321Z,1020.63
2022-11-26T07:19:46.641Z,1020.67
2022-11-26T07:20:46.614Z,1020.66
2022-11-26T07:21:46.555Z,1020.64
2022-11-26T07:22:46.540Z,1020.66
2022-11-26T07:23:46.502Z,1020.67
2022-11-26T07:24:46.484Z,1020.68
2022-11-26T07:25:46.476Z,1020.66
2022-11-26T07:26:46.496Z,1020.67
2022-11-26T07:27:46.458Z,1020.67
2022-11-26T07:28:46.457Z,1020.67
2022-11-26T07:29:46.442Z,1020.67
2022-11-26T07:30:46.423Z,1020.72
2022-11-26T07:31:46.559Z,1020.67
2022-11-26T07:32:46.401Z,1020.67
2022-11-26T07:33:46.407Z,1020.70
2022-11-26T07:34:46.383Z,1020.73
2022-11-26T07:35:46.377Z,1020.75
2022-11-26T07:36:46.371Z,1020.70
2022-11-26T07:37:46.375Z,1020.80
2022-11-26T07:38:46.343Z,1020.78
2022-11-26T07:39:46.375Z,1020.76
2022-11-26T07:40:46.319Z,1020.77
2022-11-26T07:41:46.309Z,1020.77
2022-11-26T07:42:51.859Z,1020.78
2022-11-26T07:43:47.290Z,1020.80
2022-11-26T07:44:46.274Z,1020.81
2022-11-26T07:45:46.283Z,1020.84
2022-11-26T07:46:46.304Z,1020.86
2022-11-26T07:47:46.246Z,1020.86
2022-11-26T07:48:46.294Z,1020.85
2022-11-26T07:49:47.700Z,1020.83
2022-11-26T07:50:46.215Z,1020.87
2022-11-26T07:51:46.917Z,1020.88
2022-11-26T07:52:46.188Z,1020.90
2022-11-26T07:53:46.183Z,1020.89
2022-11-26T07:54:46.212Z,1020.90
2022-11-26T07:55:46.162Z,1020.91
2022-11-26T07:56:46.162Z,1020.91
2022-11-26T07:57:46.129Z,1020.86
2022-11-26T07:58:46.123Z,1020.98
2022-11-26T07:59:46.118Z,1020.95
2022-11-26T08:00:49.661Z,1020.96
2022-11-26T08:01:47.139Z,1020.97
2022-11-26T08:02:46.199Z,1020.98
2022-11-26T08:03:46.102Z,1020.94
2022-11-26T08:04:46.062Z,1020.98
2022-11-26T08:05:46.094Z,1021.04
2022-11-26T08:06:46.066Z,1021.02
2022-11-26T08:07:46.122Z,1021.04
2022-11-26T08:08:46.024Z,1021.04
2022-11-26T08:09:46.012Z,1021.06
2022-11-26T08:10:45.992Z,1021.06
2022-11-26T08:11:46.039Z,1021.07
2022-11-26T08:12:45.986Z,1021.13
2022-11-26T08:13:46.085Z,1021.12
2022-11-26T08:14:45.957Z,1021.14
2022-11-26T08:15:45.966Z,1021.14
2022-11-26T08:16:45.976Z,1021.14
2022-11-26T08:17:45.995Z,1021.20
2022-11-26T08:18:45.911Z,1021.17
2022-11-26T08:19:45.901Z,1021.23
2022-11-26T08:20:45.883Z,1021.24
2022-11-26T08:21:45.889Z,1021.25
2022-11-26T08:22:45.937Z,1021.30
2022-11-26T08:23:45.858Z,1021.25
2022-11-26T08:24:45.851Z,1021.32
2022-11-26T08:26:14.250Z,1021.29
2022-11-26T08:26:46.825Z,1021.31
2022-11-26T08:27:45.813Z,1021.30
2022-11-26T08:28:45.832Z,1021.30
2022-11-26T08:29:45.814Z,1021.27
2022-11-26T08:30:45.777Z,1021.32
2022-11-26T08:31:46.726Z,1021.33
2022-11-26T08:32:45.765Z,1021.33
2022-11-26T08:33:45.798Z,1021.28
2022-11-26T08:34:53.475Z,1021.27
2022-11-26T08:36:06.067Z,1021.29
2022-11-26T08:36:46.720Z,1021.30
2022-11-26T08:37:45.758Z,1021.33
2022-11-26T08:38:45.691Z,1021.37
2022-11-26T08:39:45.680Z,1021.39
2022-11-26T08:40:45.670Z,1021.40
2022-11-26T08:41:50.629Z,1021.44
2022-11-26T08:42:46.716Z,1021.42
2022-11-26T08:44:05.545Z,1021.49
2022-11-26T08:44:46.631Z,1021.48
2022-11-26T08:45:45.696Z,1021.48
2022-11-26T08:46:45.610Z,1021.48
2022-11-26T08:47:45.626Z,1021.51
2022-11-26T08:48:45.619Z,1021.50
2022-11-26T08:49:45.573Z,1021.58
2022-11-26T08:50:45.571Z,1021.52
2022-11-26T08:51:45.564Z,1021.57
2022-11-26T08:52:45.538Z,1021.56
2022-11-26T08:53:46.248Z,1021.58
2022-11-26T08:54:45.882Z,1021.58
2022-11-26T08:55:59.777Z,1021.59
2022-11-26T08:56:46.532Z,1021.60
2022-11-26T08:57:45.485Z,1021.62
2022-11-26T08:58:45.520Z,1021.63
2022-11-26T08:59:45.501Z,1021.63
2022-11-26T09:00:45.476Z,1021.62
2022-11-26T09:01:45.654Z,1021.70
2022-11-26T09:02:45.487Z,1021.70
2022-11-26T09:03:45.429Z,1021.73
2022-11-26T09:04:45.414Z,1021.77
2022-11-26T09:05:45.407Z,1021.77
2022-11-26T09:06:45.425Z,1021.79
2022-11-26T09:07:49.012Z,1021.81
2022-11-26T09:08:45.367Z,1021.83
2022-11-26T09:09:45.430Z,1021.81
2022-11-26T09:10:45.357Z,1021.82
2022-11-26T09:11:45.400Z,1021.82
2022-11-26T09:12:45.331Z,1021.83
2022-11-26T09:13:45.323Z,1021.83
2022-11-26T09:14:45.397Z,1021.81
2022-11-26T09:15:45.390Z,1021.85
2022-11-26T09:16:45.377Z,1021.85
2022-11-26T09:17:45.302Z,1021.84
2022-11-26T09:18:45.267Z,1021.87
2022-11-26T09:19:45.263Z,1021.91
2022-11-26T09:20:45.242Z,1021.85
2022-11-26T09:21:45.244Z,1021.85
2022-11-26T09:22:45.249Z,1021.86
2022-11-26T09:23:45.213Z,1021.94
2022-11-26T09:24:45.195Z,1021.95
2022-11-26T09:25:45.209Z,1021.93
2022-11-26T09:26:45.187Z,1021.94
2022-11-26T09:27:45.207Z,1021.97
2022-11-26T09:28:45.154Z,1022.01
2022-11-26T09:29:45.154Z,1022.02
2022-11-26T09:30:45.134Z,1021.97
2022-11-26T09:32:15.625Z,1022.04
2022-11-26T09:32:46.192Z,1021.99
2022-11-26T09:33:45.107Z,1022.04
2022-11-26T09:34:45.099Z,1022.03
2022-11-26T09:35:45.081Z,1022.08
2022-11-26T09:36:45.069Z,1022.12
2022-11-26T09:37:50.071Z,1022.14
2022-11-26T09:38:46.060Z,1022.10
2022-11-26T09:39:45.074Z,1022.13
2022-11-26T09:40:45.030Z,1022.12
2022-11-26T09:41:45.031Z,1022.14
2022-11-26T09:42:45.043Z,1022.15
2022-11-26T09:43:46.379Z,1022.14
2022-11-26T09:44:44.995Z,1022.18
2022-11-26T09:45:45.062Z,1022.18
2022-11-26T09:47:09.943Z,1022.17
2022-11-26T09:47:45.986Z,1022.22
2022-11-26T09:48:44.953Z,1022.22
2022-11-26T09:49:44.927Z,1022.24
2022-11-26T09:50:44.940Z,1022.27
2022-11-26T09:51:44.918Z,1022.34
2022-11-26T09:52:44.907Z,1022.32
2022-11-26T09:53:44.897Z,1022.31
2022-11-26T09:54:44.914Z,1022.27
2022-11-26T09:55:44.878Z,1022.33
2022-11-26T09:56:44.858Z,1022.26
2022-11-26T09:57:44.887Z,1022.30
2022-11-26T09:58:44.842Z,1022.31
2022-11-26T09:59:44.830Z,1022.30
2022-11-26T10:00:44.956Z,1022.26
2022-11-26T10:01:44.895Z,1022.25
2022-11-26T10:02:44.881Z,1022.31
2022-11-26T10:03:44.788Z,1022.33
2022-11-26T10:04:44.780Z,1022.34
2022-11-26T10:05:44.791Z,1022.40
2022-11-26T10:06:44.758Z,1022.42
2022-11-26T10:07:44.843Z,1022.43
2022-11-26T10:08:44.727Z,1022.40
2022-11-26T10:09:44.715Z,1022.49
2022-11-26T10:10:44.715Z,1022.49
2022-11-26T10:11:44.720Z,1022.43
2022-11-26T10:13:10.813Z,1022.49
2022-11-26T10:13:45.699Z,1022.42
2022-11-26T10:14:44.684Z,1022.40
2022-11-26T10:15:44.696Z,1022.43
2022-11-26T10:16:44.714Z,1022.46
2022-11-26T10:17:44.640Z,1022.37
2022-11-26T10:18:44.620Z,1022.36
2022-11-26T10:19:44.611Z,1022.42
2022-11-26T10:20:44.606Z,1022.41
2022-11-26T10:21:58.750Z,1022.44
2022-11-26T10:22:45.584Z,1022.42
2022-11-26T10:23:44.569Z,1022.43
2022-11-26T10:24:44.558Z,1022.42
2022-11-26T10:25:44.560Z,1022.43
2022-11-26T10:26:44.571Z,1022.45
2022-11-26T10:27:44.525Z,1022.45
2022-11-26T10:28:44.541Z,1022.41
2022-11-26T10:29:44.514Z,1022.45
2022-11-26T10:30:44.499Z,1022.43
2022-11-26T10:31:44.635Z,1022.45
2022-11-26T10:32:44.471Z,1022.47
2022-11-26T10:33:44.463Z,1022.48
2022-11-26T10:34:44.962Z,1022.48
2022-11-26T10:35:44.448Z,1022.50
2022-11-26T10:36:44.433Z,1022.48
2022-11-26T10:37:44.453Z,1022.52
2022-11-26T10:38:44.413Z,1022.49
2022-11-26T10:39:44.444Z,1022.53
2022-11-26T10:40:44.391Z,1022.52
2022-11-26T10:41:44.383Z,1022.52
2022-11-26T10:42:44.373Z,1022.58
2022-11-26T10:43:44.368Z,1022.61
2022-11-26T10:44:44.365Z,1022.61
2022-11-26T10:45:44.350Z,1022.62
2022-11-26T10:46:44.342Z,1022.62
2022-11-26T10:47:44.310Z,1022.65
2022-11-26T10:48:44.307Z,1022.64
2022-11-26T10:49:44.320Z,1022.63
2022-11-26T10:50:48.148Z,1022.70
2022-11-26T10:51:44.272Z,1022.64
2022-11-26T10:52:44.258Z,1022.71
2022-11-26T10:53:44.255Z,1022.69
2022-11-26T10:54:44.231Z,1022.70
2022-11-26T10:55:44.250Z,1022.70
2022-11-26T10:56:44.214Z,1022.74
2022-11-26T10:57:44.205Z,1022.76
2022-11-26T10:58:44.189Z,1022.79
2022-11-26T10:59:44.186Z,1022.83
2022-11-26T11:00:44.284Z,1022.77
2022-11-26T11:01:44.179Z,1022.82
2022-11-26T11:02:44.187Z,1022.83
2022-11-26T11:04:07.203Z,1022.85
2022-11-26T11:04:45.341Z,1022.84
2022-11-26T11:05:44.115Z,1022.84
2022-11-26T11:06:44.331Z,1022.86
2022-11-26T11:07:44.336Z,1022.80
2022-11-26T11:08:44.089Z,1022.80
2022-11-26T11:09:44.073Z,1022.80
2022-11-26T11:10:44.060Z,1022.80
2022-11-26T11:11:44.052Z,1022.79
2022-11-26T11:12:44.112Z,1022.82
2022-11-26T11:13:44.028Z,1022.82
2022-11-26T11:14:44.144Z,1022.82
2022-11-26T11:15:44.014Z,1022.80
2022-11-26T11:16:44.080Z,1022.82
2022-11-26T11:17:44.012Z,1022.83
2022-11-26T11:18:43.985Z,1022.81
2022-11-26T11:19:43.974Z,1022.79
2022-11-26T11:20:43.964Z,1022.78
2022-11-26T11:21:48.035Z,1022.84
2022-11-26T11:22:43.962Z,1022.83
2022-11-26T11:24:07.693Z,1022.81
2022-11-26T11:24:45.139Z,1022.85
2022-11-26T11:25:43.914Z,1022.88
2022-11-26T11:26:43.906Z,1022.90
2022-11-26T11:27:43.900Z,1022.92
2022-11-26T11:28:44.344Z,1022.93
2022-11-26T11:29:43.883Z,1022.93
2022-11-26T11:30:43.858Z,1022.97
2022-11-26T11:31:43.886Z,1022.95
2022-11-26T11:32:43.854Z,1022.92
2022-11-26T11:33:43.879Z,1022.93
2022-11-26T11:34:43.814Z,1022.92
2022-11-26T11:35:43.793Z,1022.93
2022-11-26T11:36:43.812Z,1022.89
2022-11-26T11:37:43.777Z,1022.92
2022-11-26T11:38:43.805Z,1022.92
2022-11-26T11:39:43.749Z,1022.91
2022-11-26T11:40:43.750Z,1022.92
2022-11-26T11:41:43.726Z,1022.95
2022-11-26T11:42:43.719Z,1022.90
2022-11-26T11:43:43.715Z,1022.94
2022-11-26T11:44:43.725Z,1022.92
2022-11-26T11:45:47.290Z,1022.95
2022-11-26T11:46:44.683Z,1022.90
2022-11-26T11:47:43.667Z,1022.95
2022-11-26T11:48:43.663Z,1022.92
2022-11-26T11:49:43.698Z,1022.92
2022-11-26T11:50:43.656Z,1022.97
2022-11-26T11:51:43.631Z,1022.95
2022-11-26T11:52:43.622Z,1022.90
2022-11-26T11:53:43.610Z,1022.90
2022-11-26T11:54:43.589Z,1022.92
2022-11-26T11:55:43.610Z,1022.94
2022-11-26T11:56:43.568Z,1022.95
2022-11-26T11:57:43.562Z,1022.96
2022-11-26T11:58:43.557Z,1022.94
2022-11-26T11:59:43.544Z,1022.96
2022-11-26T12:00:43.538Z,1022.94
2022-11-26T12:01:43.679Z,1023.01
2022-11-26T12:02:43.511Z,1022.99
2022-11-26T12:03:43.495Z,1022.95
2022-11-26T12:04:43.548Z,1022.97
2022-11-26T12:05:43.489Z,1022.97